Time;durP1;ratioP1;P1;durP2;ratioP2;P2;SDS_P1;SDS_P2;PMS_P1;PMS_P2;Temp;Humidity;BMP_temperature;BMP_pressure;BME280_temperature;BME280_humidity;BME280_pressure;Samples;Min_cycle;Max_cycle;Signal;HPM_P1;HPM_P2
2023/06/30 00:01:25;;;;;;;15.80;4.47;;;;;;;;;;4971897;28;20492;-61
2023/06/30 00:03:52;;;;;;;13.63;4.27;;;;;;;;;;4971856;28;20095;-61
2023/06/30 00:06:18;;;;;;;10.80;4.63;;;;;;;;;;4971699;28;20050;-61
2023/06/30 00:08:44;;;;;;;13.17;4.20;;;;;;;;;;4971612;28;20082;-61
2023/06/30 00:11:10;;;;;;;10.27;4.30;;;;;;;;;;4971746;28;20086;-61
2023/06/30 00:13:36;;;;;;;12.33;4.30;;;;;;;;;;4971314;28;20114;-61
2023/06/30 00:16:02;;;;;;;16.50;4.23;;;;;;;;;;4971651;28;20134;-61
2023/06/30 00:18:29;;;;;;;11.63;4.40;;;;;;;;;;4971778;28;20129;-61
2023/06/30 00:20:55;;;;;;;15.13;4.07;;;;;;;;;;4971354;28;20464;-61
2023/06/30 00:23:21;;;;;;;11.47;4.20;;;;;;;;;;4971289;28;20053;-61
2023/06/30 00:25:47;;;;;;;14.57;4.13;;;;;;;;;;4971045;28;20508;-61
2023/06/30 00:28:13;;;;;;;9.40;3.37;;;;;;;;;;4971552;28;20039;-61
2023/06/30 00:30:39;;;;;;;16.30;3.83;;;;;;;;;;4971090;28;20058;-62
2023/06/30 00:33:05;;;;;;;11.30;3.40;;;;;;;;;;4971280;28;20321;-62
2023/06/30 00:35:31;;;;;;;12.97;3.60;;;;;;;;;;4970833;28;20373;-61
2023/06/30 00:37:57;;;;;;;9.63;3.40;;;;;;;;;;4971400;28;20043;-61
2023/06/30 00:40:23;;;;;;;15.43;4.17;;;;;;;;;;4970868;28;20129;-61
2023/06/30 00:42:49;;;;;;;10.60;3.60;;;;;;;;;;4970980;28;20114;-61
2023/06/30 00:45:15;;;;;;;10.90;3.63;;;;;;;;;;4971317;28;20145;-61
2023/06/30 00:47:41;;;;;;;12.77;4.00;;;;;;;;;;4970603;28;20478;-62
2023/06/30 00:50:07;;;;;;;8.70;3.60;;;;;;;;;;4971035;28;20057;-61
2023/06/30 00:52:33;;;;;;;13.17;4.20;;;;;;;;;;4971101;28;20468;-62
2023/06/30 00:54:59;;;;;;;13.27;4.00;;;;;;;;;;4970948;28;20047;-61
2023/06/30 00:57:25;;;;;;;15.80;3.50;;;;;;;;;;4970619;28;20125;-61
2023/06/30 00:59:51;;;;;;;15.00;3.87;;;;;;;;;;4970138;28;20054;-62
2023/06/30 01:02:20;;;;;;;12.00;4.20;;;;;;;;;;4971335;28;20045;-61
2023/06/30 01:04:50;;;;;;;15.33;3.80;;;;;;;;;;4970685;28;20039;-61
2023/06/30 01:07:37;;;;;;;19.97;4.07;;;;;;;;;;4970507;28;20449;-61
2023/06/30 01:10:12;;;;;;;13.80;4.23;;;;;;;;;;4970165;28;20047;-61
2023/06/30 01:12:38;;;;;;;15.83;4.03;;;;;;;;;;4970431;28;20100;-61
2023/06/30 01:15:05;;;;;;;17.13;3.87;;;;;;;;;;4970777;28;20078;-61
2023/06/30 01:17:33;;;;;;;18.00;4.00;;;;;;;;;;4970687;28;20112;-61
2023/06/30 01:19:59;;;;;;;9.27;3.47;;;;;;;;;;4970299;28;20046;-61
2023/06/30 01:22:31;;;;;;;23.23;6.17;;;;;;;;;;4969904;28;20046;-61
2023/06/30 01:24:59;;;;;;;12.87;4.47;;;;;;;;;;4970254;28;20464;-61
2023/06/30 01:27:26;;;;;;;13.10;4.13;;;;;;;;;;4970414;28;20520;-61
2023/06/30 01:29:52;;;;;;;16.13;5.40;;;;;;;;;;4969714;28;20093;-61
2023/06/30 01:32:18;;;;;;;18.03;4.60;;;;;;;;;;4970005;28;20580;-61
2023/06/30 01:34:45;;;;;;;13.77;5.20;;;;;;;;;;4970170;28;20080;-61
2023/06/30 01:37:11;;;;;;;19.63;4.93;;;;;;;;;;4970275;28;20045;-61
2023/06/30 01:39:37;;;;;;;15.33;4.80;;;;;;;;;;4969794;28;20118;-61
2023/06/30 01:42:03;;;;;;;13.30;5.10;;;;;;;;;;4969683;28;20047;-62
2023/06/30 01:44:29;;;;;;;18.07;5.17;;;;;;;;;;4969388;28;20421;-61
2023/06/30 01:46:55;;;;;;;18.83;5.97;;;;;;;;;;4970038;28;20333;-61
2023/06/30 01:49:22;;;;;;;16.27;4.53;;;;;;;;;;4969625;28;20054;-61
2023/06/30 01:51:48;;;;;;;11.90;4.50;;;;;;;;;;4969816;28;20137;-61
2023/06/30 01:54:14;;;;;;;16.17;6.13;;;;;;;;;;4969329;28;20321;-61
2023/06/30 01:56:48;;;;;;;20.63;5.57;;;;;;;;;;4969600;28;20051;-61
2023/06/30 01:59:14;;;;;;;15.93;4.72;;;;;;;;;;4969834;28;20066;-62
2023/06/30 02:01:40;;;;;;;21.90;5.63;;;;;;;;;;4969457;28;20046;-61
2023/06/30 02:04:06;;;;;;;18.70;5.80;;;;;;;;;;4969794;28;20050;-61
2023/06/30 02:06:32;;;;;;;15.17;5.60;;;;;;;;;;4970036;28;20072;-61
2023/06/30 02:08:58;;;;;;;16.87;6.30;;;;;;;;;;4969102;28;20513;-61
2023/06/30 02:11:23;;;;;;;16.33;6.97;;;;;;;;;;4969723;28;20065;-61
2023/06/30 02:13:49;;;;;;;13.93;6.67;;;;;;;;;;4969780;28;20051;-61
2023/06/30 02:16:15;;;;;;;16.57;6.37;;;;;;;;;;4969491;28;20417;-61
2023/06/30 02:18:41;;;;;;;13.83;5.97;;;;;;;;;;4969459;28;20046;-61
2023/06/30 02:21:07;;;;;;;15.13;6.70;;;;;;;;;;4969558;28;20555;-61
2023/06/30 02:23:33;;;;;;;16.80;6.43;;;;;;;;;;4968766;28;20065;-61
2023/06/30 02:25:59;;;;;;;23.67;7.23;;;;;;;;;;4969475;28;20053;-61
2023/06/30 02:28:25;;;;;;;14.87;6.73;;;;;;;;;;4969668;28;20469;-61
2023/06/30 02:30:51;;;;;;;22.00;7.13;;;;;;;;;;4969465;28;20143;-61
2023/06/30 02:33:17;;;;;;;16.67;7.40;;;;;;;;;;4969589;28;20054;-61
2023/06/30 02:35:43;;;;;;;22.97;8.33;;;;;;;;;;4969101;28;20054;-61
2023/06/30 02:38:09;;;;;;;15.80;7.20;;;;;;;;;;4968821;28;20338;-61
2023/06/30 02:40:36;;;;;;;20.03;7.50;;;;;;;;;;4969137;28;20042;-61
2023/06/30 02:43:02;;;;;;;20.37;7.10;;;;;;;;;;4969293;28;20544;-61
2023/06/30 02:45:28;;;;;;;20.60;8.37;;;;;;;;;;4969258;28;20424;-61
2023/06/30 02:47:54;;;;;;;15.70;6.73;;;;;;;;;;4969475;28;20042;-61
2023/06/30 02:50:30;;;;;;;18.30;8.47;;;;;;;;;;4969374;28;20046;-61
2023/06/30 02:52:58;;;;;;;15.53;7.80;;;;;;;;;;4968925;28;20071;-61
2023/06/30 02:55:24;;;;;;;21.23;7.70;;;;;;;;;;4971046;28;20416;-61
2023/06/30 02:57:50;;;;;;;13.77;7.00;;;;;;;;;;4972785;28;20062;-61
2023/06/30 03:00:16;;;;;;;22.13;8.10;;;;;;;;;;4972804;28;20440;-61
2023/06/30 03:02:42;;;;;;;16.43;8.57;;;;;;;;;;4973043;28;20510;-61
2023/06/30 03:05:09;;;;;;;23.17;8.90;;;;;;;;;;4972335;28;20051;-61
2023/06/30 03:07:35;;;;;;;21.80;9.13;;;;;;;;;;4972877;28;20047;-61
2023/06/30 03:10:01;;;;;;;19.00;8.00;;;;;;;;;;4973110;28;20058;-61
2023/06/30 03:12:27;;;;;;;19.03;7.70;;;;;;;;;;4972600;28;20050;-61
2023/06/30 03:14:53;;;;;;;22.47;8.67;;;;;;;;;;4972771;28;20497;-61
2023/06/30 03:17:20;;;;;;;15.00;8.03;;;;;;;;;;4955676;28;20765;-61
2023/06/30 03:19:46;;;;;;;21.17;9.90;;;;;;;;;;4972371;28;20516;-61
2023/06/30 03:22:12;;;;;;;18.60;7.87;;;;;;;;;;4972214;28;20129;-61
2023/06/30 03:24:38;;;;;;;26.20;9.63;;;;;;;;;;4972521;28;20082;-61
2023/06/30 03:27:04;;;;;;;26.17;10.70;;;;;;;;;;4955324;28;20046;-61
2023/06/30 03:29:30;;;;;;;26.70;9.87;;;;;;;;;;4971871;28;20563;-61
2023/06/30 03:31:56;;;;;;;19.50;9.93;;;;;;;;;;4972177;28;20074;-61
2023/06/30 03:34:22;;;;;;;27.73;10.07;;;;;;;;;;4972118;28;20501;-61
2023/06/30 03:36:49;;;;;;;20.57;9.33;;;;;;;;;;4971813;28;20126;-61
2023/06/30 03:39:15;;;;;;;21.53;10.67;;;;;;;;;;4972072;28;20061;-62
2023/06/30 03:41:41;;;;;;;28.93;10.47;;;;;;;;;;4971435;28;20051;-62
2023/06/30 03:44:07;;;;;;;25.07;10.70;;;;;;;;;;4971927;28;20057;-62
2023/06/30 03:46:33;;;;;;;25.90;12.77;;;;;;;;;;4971844;28;20050;-62
2023/06/30 03:48:59;;;;;;;27.67;11.77;;;;;;;;;;4971963;28;20047;-62
2023/06/30 03:51:25;;;;;;;25.17;12.03;;;;;;;;;;4972289;28;20053;-61
2023/06/30 03:53:51;;;;;;;22.47;9.97;;;;;;;;;;4971597;28;20051;-62
2023/06/30 03:56:17;;;;;;;23.03;11.27;;;;;;;;;;4971629;28;20078;-62
2023/06/30 03:58:43;;;;;;;23.53;10.33;;;;;;;;;;4971766;28;20134;-62
2023/06/30 04:01:09;;;;;;;26.20;11.90;;;;;;;;;;4971818;28;20133;-62
2023/06/30 04:03:35;;;;;;;26.07;10.80;;;;;;;;;;4971542;28;20039;-62
2023/06/30 04:06:01;;;;;;;25.83;11.07;;;;;;;;;;4970829;28;20054;-62
2023/06/30 04:08:28;;;;;;;22.40;10.90;;;;;;;;;;4971526;28;20054;-62
2023/06/30 04:10:55;;;;;;;26.17;10.57;;;;;;;;;;4971408;28;20121;-61
2023/06/30 04:13:21;;;;;;;21.90;10.87;;;;;;;;;;4971833;28;20042;-62
2023/06/30 04:15:47;;;;;;;25.67;10.60;;;;;;;;;;4971518;28;20117;-61
2023/06/30 04:18:14;;;;;;;23.37;9.23;;;;;;;;;;4971282;28;20047;-62
2023/06/30 04:20:40;;;;;;;23.60;11.07;;;;;;;;;;4970771;28;20424;-62
2023/06/30 04:23:06;;;;;;;24.87;10.00;;;;;;;;;;4971381;28;20075;-61
2023/06/30 04:25:32;;;;;;;33.97;12.40;;;;;;;;;;4971023;28;20078;-62
2023/06/30 04:27:58;;;;;;;19.37;10.60;;;;;;;;;;4971143;28;20537;-62
2023/06/30 04:30:24;;;;;;;24.37;10.47;;;;;;;;;;4971374;28;20331;-61
2023/06/30 04:32:50;;;;;;;29.30;11.00;;;;;;;;;;4970523;28;20462;-62
2023/06/30 04:35:16;;;;;;;23.37;9.53;;;;;;;;;;4971001;28;20047;-62
2023/06/30 04:37:42;;;;;;;21.57;9.73;;;;;;;;;;4970978;28;20051;-62
2023/06/30 04:40:08;;;;;;;24.53;9.50;;;;;;;;;;4970996;28;20101;-62
2023/06/30 04:42:35;;;;;;;18.63;8.97;;;;;;;;;;4970708;28;20592;-62
2023/06/30 04:45:01;;;;;;;24.80;10.20;;;;;;;;;;4970825;28;20049;-62
2023/06/30 04:47:30;;;;;;;16.60;9.03;;;;;;;;;;4970679;28;20421;-62
2023/06/30 04:49:56;;;;;;;23.10;10.80;;;;;;;;;;4970919;28;20042;-62
2023/06/30 04:52:22;;;;;;;19.00;8.33;;;;;;;;;;4970872;28;20117;-62
2023/06/30 04:54:48;;;;;;;19.07;8.93;;;;;;;;;;4969859;28;20053;-61
2023/06/30 04:57:14;;;;;;;20.30;8.10;;;;;;;;;;4970568;28;20047;-62
2023/06/30 04:59:40;;;;;;;18.57;8.00;;;;;;;;;;4970743;28;20043;-62
2023/06/30 05:02:06;;;;;;;17.30;8.37;;;;;;;;;;4970134;28;20047;-62
2023/06/30 05:04:32;;;;;;;25.37;8.93;;;;;;;;;;4970438;28;20438;-62
2023/06/30 05:06:58;;;;;;;20.50;8.03;;;;;;;;;;4970725;28;20046;-61
2023/06/30 05:09:24;;;;;;;15.00;8.07;;;;;;;;;;4970169;28;20085;-62
2023/06/30 05:11:50;;;;;;;20.10;8.70;;;;;;;;;;4970293;28;20050;-62
2023/06/30 05:14:16;;;;;;;21.57;8.83;;;;;;;;;;4969993;28;20131;-62
2023/06/30 05:16:42;;;;;;;19.27;7.80;;;;;;;;;;4970132;28;20047;-62
2023/06/30 05:19:08;;;;;;;20.33;8.50;;;;;;;;;;4969776;28;20039;-62
2023/06/30 05:21:34;;;;;;;20.73;7.90;;;;;;;;;;4970229;28;20043;-62
2023/06/30 05:24:00;;;;;;;20.00;8.27;;;;;;;;;;4969604;28;20047;-62
2023/06/30 05:26:26;;;;;;;16.23;6.67;;;;;;;;;;4969977;28;20101;-62
2023/06/30 05:28:52;;;;;;;18.57;7.20;;;;;;;;;;4970194;28;20105;-62
2023/06/30 05:31:18;;;;;;;15.90;7.40;;;;;;;;;;4969975;28;20054;-62
2023/06/30 05:33:44;;;;;;;14.00;6.87;;;;;;;;;;4969777;28;20055;-62
2023/06/30 05:36:10;;;;;;;17.67;6.07;;;;;;;;;;4969928;28;20113;-61
2023/06/30 05:38:36;;;;;;;13.00;5.20;;;;;;;;;;4969547;28;20057;-62
2023/06/30 05:41:02;;;;;;;18.27;5.73;;;;;;;;;;4969831;28;20061;-62
2023/06/30 05:43:28;;;;;;;16.47;7.53;;;;;;;;;;4969831;28;20465;-62
2023/06/30 05:45:54;;;;;;;13.77;5.40;;;;;;;;;;4952477;28;20081;-62
2023/06/30 05:48:20;;;;;;;17.43;5.17;;;;;;;;;;4969776;28;20053;-62
2023/06/30 05:50:46;;;;;;;17.57;5.27;;;;;;;;;;4969453;28;20133;-62
2023/06/30 05:53:12;;;;;;;17.57;5.50;;;;;;;;;;4969180;28;20473;-62
2023/06/30 05:55:38;;;;;;;10.80;4.30;;;;;;;;;;4969540;28;20856;-62
2023/06/30 05:58:04;;;;;;;15.77;5.20;;;;;;;;;;4969651;28;20445;-62
2023/06/30 06:00:30;;;;;;;15.30;5.70;;;;;;;;;;4969281;28;20043;-62
2023/06/30 06:02:56;;;;;;;15.30;4.87;;;;;;;;;;4969579;28;20050;-62
2023/06/30 06:05:22;;;;;;;11.37;4.07;;;;;;;;;;4969700;28;20045;-61
2023/06/30 06:07:49;;;;;;;12.33;4.33;;;;;;;;;;4968937;28;20055;-61
2023/06/30 06:10:15;;;;;;;13.77;4.40;;;;;;;;;;4969418;28;20059;-61
2023/06/30 06:12:41;;;;;;;15.37;4.73;;;;;;;;;;4969914;28;20042;-61
2023/06/30 06:15:10;;;;;;;14.50;3.80;;;;;;;;;;4968786;28;20053;-61
2023/06/30 06:17:36;;;;;;;9.53;3.33;;;;;;;;;;4969181;28;20043;-61
2023/06/30 06:20:02;;;;;;;12.70;3.67;;;;;;;;;;4969322;28;20113;-61
2023/06/30 06:22:28;;;;;;;13.13;2.80;;;;;;;;;;4969499;28;20046;-61
2023/06/30 06:24:54;;;;;;;10.83;3.03;;;;;;;;;;4969041;28;20572;-61
2023/06/30 06:27:20;;;;;;;7.13;2.70;;;;;;;;;;4968872;28;20053;-61
2023/06/30 06:29:46;;;;;;;9.27;2.70;;;;;;;;;;4969249;28;20157;-61
2023/06/30 06:32:12;;;;;;;9.63;2.53;;;;;;;;;;4969114;28;20436;-62
2023/06/30 06:34:38;;;;;;;10.37;2.60;;;;;;;;;;4968850;28;20171;-61
2023/06/30 06:37:04;;;;;;;8.37;2.10;;;;;;;;;;4968701;28;20113;-63
2023/06/30 06:39:30;;;;;;;7.53;2.03;;;;;;;;;;4969141;28;20050;-61
2023/06/30 06:41:56;;;;;;;11.47;2.70;;;;;;;;;;4968712;28;20047;-62
2023/06/30 06:44:23;;;;;;;5.40;1.80;;;;;;;;;;4968821;28;20047;-61
2023/06/30 06:47:08;;;;;;;6.77;1.60;;;;;;;;;;4969174;28;20047;-61
2023/06/30 06:49:34;;;;;;;14.37;1.90;;;;;;;;;;4968785;28;20046;-62
2023/06/30 06:52:01;;;;;;;8.80;1.63;;;;;;;;;;4969018;28;20069;-62
2023/06/30 06:54:27;;;;;;;12.30;2.20;;;;;;;;;;4968558;28;20050;-61
2023/06/30 06:56:53;;;;;;;5.47;1.10;;;;;;;;;;4969029;28;20053;-61
2023/06/30 06:59:19;;;;;;;5.63;1.50;;;;;;;;;;4968945;28;20385;-61
2023/06/30 07:01:45;;;;;;;7.03;1.33;;;;;;;;;;4968746;28;20047;-62
2023/06/30 07:04:11;;;;;;;10.40;1.80;;;;;;;;;;4969064;28;20409;-62
2023/06/30 07:06:37;;;;;;;9.40;1.30;;;;;;;;;;4968264;28;20138;-62
2023/06/30 07:09:03;;;;;;;8.17;1.87;;;;;;;;;;4968747;28;20509;-62
2023/06/30 07:11:29;;;;;;;9.27;1.60;;;;;;;;;;4969010;28;20061;-62
2023/06/30 07:13:55;;;;;;;7.47;1.30;;;;;;;;;;4968743;28;20046;-62
2023/06/30 07:16:21;;;;;;;5.10;1.63;;;;;;;;;;4968333;28;20067;-62
2023/06/30 07:18:47;;;;;;;3.90;1.40;;;;;;;;;;4968923;28;20413;-61
2023/06/30 07:21:13;;;;;;;6.30;1.50;;;;;;;;;;4968767;28;20057;-60
2023/06/30 07:23:39;;;;;;;6.90;1.20;;;;;;;;;;4968678;28;20405;-60
2023/06/30 07:26:05;;;;;;;7.73;1.37;;;;;;;;;;4968177;28;20039;-60
2023/06/30 07:28:31;;;;;;;8.23;1.50;;;;;;;;;;4968800;28;20568;-61
2023/06/30 07:30:57;;;;;;;7.17;1.87;;;;;;;;;;4968506;28;20047;-62
2023/06/30 07:33:23;;;;;;;5.50;1.17;;;;;;;;;;4968364;28;20134;-62
2023/06/30 07:35:49;;;;;;;6.00;1.33;;;;;;;;;;4968107;28;20509;-62
2023/06/30 07:38:15;;;;;;;7.90;1.30;;;;;;;;;;4968655;28;20046;-62
2023/06/30 07:40:41;;;;;;;6.90;1.33;;;;;;;;;;4968739;28;20141;-62
2023/06/30 07:43:07;;;;;;;4.67;1.50;;;;;;;;;;4972103;28;20585;-62
2023/06/30 07:45:33;;;;;;;6.77;1.40;;;;;;;;;;4972001;28;20050;-62
2023/06/30 07:47:59;;;;;;;3.53;1.17;;;;;;;;;;4971996;28;20039;-62
2023/06/30 07:50:25;;;;;;;7.90;1.60;;;;;;;;;;4971227;28;20089;-62
2023/06/30 07:52:51;;;;;;;6.50;1.47;;;;;;;;;;4972038;28;20047;-62
2023/06/30 07:55:17;;;;;;;5.47;1.53;;;;;;;;;;4972232;28;20046;-60
2023/06/30 07:57:44;;;;;;;5.70;0.93;;;;;;;;;;4971592;28;20125;-60
2023/06/30 08:00:11;;;;;;;6.00;1.10;;;;;;;;;;4971515;28;20097;-60
2023/06/30 08:02:38;;;;;;;5.27;0.90;;;;;;;;;;4971700;28;20047;-60
2023/06/30 08:05:04;;;;;;;2.70;1.00;;;;;;;;;;4971264;28;20420;-60
2023/06/30 08:07:30;;;;;;;6.87;1.13;;;;;;;;;;4971422;28;20428;-60
2023/06/30 08:09:56;;;;;;;5.23;1.40;;;;;;;;;;4971519;28;20528;-60
2023/06/30 08:12:22;;;;;;;6.90;1.10;;;;;;;;;;4971663;28;20047;-60
2023/06/30 08:14:48;;;;;;;5.23;1.10;;;;;;;;;;4971339;28;20039;-60
2023/06/30 08:17:17;;;;;;;3.43;0.90;;;;;;;;;;4971002;28;20627;-60
2023/06/30 08:19:43;;;;;;;5.63;1.37;;;;;;;;;;4971505;28;20134;-60
2023/06/30 08:22:13;;;;;;;5.77;1.30;;;;;;;;;;4971668;28;20070;-60
2023/06/30 08:24:39;;;;;;;7.33;1.33;;;;;;;;;;4971100;28;20055;-60
2023/06/30 08:27:05;;;;;;;6.20;1.23;;;;;;;;;;4971263;28;20043;-60
2023/06/30 08:29:31;;;;;;;4.90;1.03;;;;;;;;;;4971332;28;20078;-61
2023/06/30 08:31:57;;;;;;;4.20;1.33;;;;;;;;;;4970887;28;20046;-62
2023/06/30 08:34:25;;;;;;;2.57;1.20;;;;;;;;;;4970869;28;20074;-61
2023/06/30 08:36:52;;;;;;;4.77;1.33;;;;;;;;;;4970974;28;20545;-61
2023/06/30 08:39:18;;;;;;;3.87;1.10;;;;;;;;;;4971207;28;20042;-62
2023/06/30 08:41:44;;;;;;;4.13;1.00;;;;;;;;;;4970740;28;20567;-61
2023/06/30 08:44:11;;;;;;;3.13;1.10;;;;;;;;;;4970407;28;20054;-61
2023/06/30 08:46:37;;;;;;;3.47;1.03;;;;;;;;;;4970608;28;20058;-61
2023/06/30 08:49:03;;;;;;;6.57;1.47;;;;;;;;;;4970876;28;20043;-61
2023/06/30 08:51:29;;;;;;;2.43;0.83;;;;;;;;;;4970266;28;20043;-61
2023/06/30 08:53:56;;;;;;;5.20;1.00;;;;;;;;;;4969682;28;20051;-61
2023/06/30 08:56:22;;;;;;;3.67;1.37;;;;;;;;;;4970542;28;20517;-61
2023/06/30 08:58:48;;;;;;;5.30;1.10;;;;;;;;;;4970721;28;20568;-61
2023/06/30 09:01:14;;;;;;;8.27;1.33;;;;;;;;;;4970430;28;20092;-61
2023/06/30 09:03:41;;;;;;;6.07;0.93;;;;;;;;;;4970488;28;20138;-61
2023/06/30 09:06:08;;;;;;;12.67;2.27;;;;;;;;;;4970241;28;20131;-61
2023/06/30 09:08:45;;;;;;;5.00;1.07;;;;;;;;;;4970368;28;20232;-61
2023/06/30 09:11:12;;;;;;;5.20;1.20;;;;;;;;;;4970616;28;20050;-61
2023/06/30 09:13:39;;;;;;;6.60;1.10;;;;;;;;;;4969824;28;20049;-61
2023/06/30 09:16:08;;;;;;;6.33;1.10;;;;;;;;;;4970356;28;20046;-61
2023/06/30 09:18:34;;;;;;;5.83;1.33;;;;;;;;;;4970490;28;20101;-61
2023/06/30 09:21:00;;;;;;;3.43;1.10;;;;;;;;;;4970159;28;20149;-61
2023/06/30 09:23:28;;;;;;;7.13;1.43;;;;;;;;;;4970081;28;20047;-61
2023/06/30 09:25:54;;;;;;;5.40;1.30;;;;;;;;;;4969798;28;20047;-61
2023/06/30 09:28:19;;;;;;;4.60;1.30;;;;;;;;;;4969767;28;20042;-61
2023/06/30 09:30:46;;;;;;;3.67;1.10;;;;;;;;;;4969992;28;20058;-61
2023/06/30 09:33:20;;;;;;;4.72;1.15;;;;;;;;;;4969828;28;20046;-61
2023/06/30 09:35:47;;;;;;;4.28;1.40;;;;;;;;;;4969711;28;20165;-61
2023/06/30 09:38:14;;;;;;;3.28;1.10;;;;;;;;;;4969253;28;20540;-61
2023/06/30 09:40:50;;;;;;;4.65;1.20;;;;;;;;;;4969808;28;20501;-61
2023/06/30 09:43:26;;;;;;;5.75;1.20;;;;;;;;;;4969905;28;20057;-61
2023/06/30 09:45:55;;;;;;;6.85;1.08;;;;;;;;;;4969536;28;20094;-61
2023/06/30 09:48:21;;;;;;;4.10;1.35;;;;;;;;;;4969372;28;20066;-61
2023/06/30 09:50:47;;;;;;;3.87;1.10;;;;;;;;;;4969614;28;20506;-61
2023/06/30 09:53:19;;;;;;;6.93;1.40;;;;;;;;;;4969653;28;20082;-61
2023/06/30 09:55:54;;;;;;;3.63;1.20;;;;;;;;;;4969663;28;20074;-61
2023/06/30 09:58:20;;;;;;;4.95;1.17;;;;;;;;;;4969374;28;20035;-61
2023/06/30 10:00:47;;;;;;;4.90;1.23;;;;;;;;;;4969372;28;20520;-61
2023/06/30 10:03:16;;;;;;;5.20;1.85;;;;;;;;;;4969386;28;20038;-61
2023/06/30 10:05:43;;;;;;;3.55;0.93;;;;;;;;;;4969826;28;20058;-61
2023/06/30 10:08:10;;;;;;;4.88;1.08;;;;;;;;;;4969098;28;20429;-61
2023/06/30 10:10:36;;;;;;;5.30;1.50;;;;;;;;;;4969437;28;20078;-61
2023/06/30 10:13:02;;;;;;;8.18;1.48;;;;;;;;;;4969628;28;20046;-61
2023/06/30 10:15:30;;;;;;;3.55;1.02;;;;;;;;;;4969596;28;20034;-61
2023/06/30 10:17:58;;;;;;;3.67;1.00;;;;;;;;;;4969305;28;20078;-61
2023/06/30 10:20:24;;;;;;;3.60;1.17;;;;;;;;;;4968968;28;20052;-62
2023/06/30 10:22:51;;;;;;;5.03;1.27;;;;;;;;;;4968752;28;20133;-61
2023/06/30 10:25:18;;;;;;;6.70;1.33;;;;;;;;;;4969334;28;20053;-61
2023/06/30 10:27:45;;;;;;;3.10;1.25;;;;;;;;;;4968884;28;20065;-62
2023/06/30 10:30:12;;;;;;;3.25;1.05;;;;;;;;;;4965377;28;20035;-65
2023/06/30 10:32:39;;;;;;;3.22;1.20;;;;;;;;;;4965464;28;20082;-62
2023/06/30 10:35:05;;;;;;;4.35;1.20;;;;;;;;;;4969509;28;20077;-62
2023/06/30 10:37:31;;;;;;;6.53;1.38;;;;;;;;;;4969343;28;20047;-61
2023/06/30 10:39:57;;;;;;;3.58;1.00;;;;;;;;;;4966853;28;20571;-62
2023/06/30 10:42:26;;;;;;;5.18;1.30;;;;;;;;;;4967790;28;20066;-62
2023/06/30 10:44:57;;;;;;;2.63;0.98;;;;;;;;;;4969304;28;20081;-62
2023/06/30 10:47:27;;;;;;;4.90;0.90;;;;;;;;;;4968926;28;20142;-62
2023/06/30 10:49:54;;;;;;;4.28;1.17;;;;;;;;;;4968165;28;20057;-62
2023/06/30 10:52:29;;;;;;;5.55;1.23;;;;;;;;;;4969007;28;20046;-61
2023/06/30 10:54:55;;;;;;;7.22;1.73;;;;;;;;;;4968688;28;20051;-61
2023/06/30 10:57:25;;;;;;;4.80;1.73;;;;;;;;;;4967969;28;20090;-62
2023/06/30 11:00:10;;;;;;;4.05;1.05;;;;;;;;;;4969086;28;20127;-62
2023/06/30 11:02:36;;;;;;;3.83;1.17;;;;;;;;;;4967861;28;20062;-62
2023/06/30 11:05:21;;;;;;;2.97;1.05;;;;;;;;;;4967500;28;20039;-61
2023/06/30 11:07:52;;;;;;;3.80;1.30;;;;;;;;;;4966453;28;20065;-61
2023/06/30 11:10:33;;;;;;;5.07;1.38;;;;;;;;;;4968378;28;20199;-61
2023/06/30 11:13:00;;;;;;;3.33;1.23;;;;;;;;;;4969375;28;20056;-61
2023/06/30 11:15:27;;;;;;;4.72;1.67;;;;;;;;;;4969266;28;20043;-61
2023/06/30 11:17:54;;;;;;;6.97;1.60;;;;;;;;;;4972855;28;20055;-61
2023/06/30 11:20:26;;;;;;;2.88;1.10;;;;;;;;;;4972969;28;20050;-61
2023/06/30 11:22:55;;;;;;;5.75;1.45;;;;;;;;;;4972017;28;20436;-62
2023/06/30 11:25:21;;;;;;;3.65;1.67;;;;;;;;;;4972519;28;20502;-62
2023/06/30 11:27:47;;;;;;;3.00;1.17;;;;;;;;;;4971566;28;20039;-61
2023/06/30 11:30:18;;;;;;;3.03;1.33;;;;;;;;;;4972125;28;20093;-62
2023/06/30 11:32:44;;;;;;;4.68;1.20;;;;;;;;;;4972506;28;20440;-62
2023/06/30 11:35:12;;;;;;;3.05;1.00;;;;;;;;;;4972087;28;20109;-62
2023/06/30 11:37:38;;;;;;;4.93;1.10;;;;;;;;;;4971526;28;20070;-62
2023/06/30 11:40:05;;;;;;;4.90;1.25;;;;;;;;;;4972368;28;20046;-62
2023/06/30 11:42:37;;;;;;;3.90;1.60;;;;;;;;;;4970781;28;20042;-62
2023/06/30 11:45:05;;;;;;;6.30;1.67;;;;;;;;;;4971124;28;20051;-62
2023/06/30 11:47:31;;;;;;;8.43;1.90;;;;;;;;;;4971354;28;20062;-62
2023/06/30 11:49:57;;;;;;;20.23;4.68;;;;;;;;;;4970771;28;20043;-62
2023/06/30 11:52:23;;;;;;;4.68;1.30;;;;;;;;;;4971994;28;20054;-62
2023/06/30 11:54:49;;;;;;;4.97;1.52;;;;;;;;;;4972021;28;20462;-62
2023/06/30 11:57:15;;;;;;;5.65;1.48;;;;;;;;;;4971874;28;20125;-62
2023/06/30 11:59:41;;;;;;;4.53;1.40;;;;;;;;;;4971387;28;20066;-62
2023/06/30 12:02:08;;;;;;;4.90;1.38;;;;;;;;;;4971050;28;20047;-62
2023/06/30 12:04:35;;;;;;;4.53;1.40;;;;;;;;;;4971859;28;20489;-62
2023/06/30 12:07:05;;;;;;;5.20;1.50;;;;;;;;;;4971419;28;20045;-62
2023/06/30 12:09:34;;;;;;;4.93;1.17;;;;;;;;;;4967800;28;20043;-62
2023/06/30 12:12:00;;;;;;;4.47;1.60;;;;;;;;;;4970697;28;20055;-62
2023/06/30 12:14:26;;;;;;;3.00;1.27;;;;;;;;;;4971808;28;20133;-62
2023/06/30 12:16:53;;;;;;;4.68;1.40;;;;;;;;;;4971847;28;20050;-62
2023/06/30 12:19:28;;;;;;;4.18;1.75;;;;;;;;;;4971675;28;20049;-62
2023/06/30 12:21:55;;;;;;;3.80;1.33;;;;;;;;;;4971138;28;20058;-62
2023/06/30 12:24:22;;;;;;;4.45;1.42;;;;;;;;;;4969508;28;20046;-62
2023/06/30 12:26:48;;;;;;;4.55;1.38;;;;;;;;;;4969085;28;20043;-62
2023/06/30 12:29:16;;;;;;;3.53;1.38;;;;;;;;;;4971420;28;20542;-62
2023/06/30 12:31:42;;;;;;;5.07;1.30;;;;;;;;;;4969958;28;20577;-62
2023/06/30 12:34:08;;;;;;;3.53;1.17;;;;;;;;;;4971601;28;20086;-62
2023/06/30 12:36:34;;;;;;;3.05;1.10;;;;;;;;;;4971051;28;20128;-62
2023/06/30 12:39:00;;;;;;;3.03;1.15;;;;;;;;;;4971583;28;20413;-62
2023/06/30 12:41:26;;;;;;;2.88;1.17;;;;;;;;;;4970949;28;20082;-63
2023/06/30 12:43:53;;;;;;;2.67;1.10;;;;;;;;;;4970506;28;20043;-62
2023/06/30 12:46:19;;;;;;;3.85;1.55;;;;;;;;;;4971330;28;20047;-62
2023/06/30 12:48:45;;;;;;;5.45;1.52;;;;;;;;;;4970920;28;20057;-63
2023/06/30 12:51:11;;;;;;;4.32;1.60;;;;;;;;;;4971129;28;20039;-62
2023/06/30 12:53:37;;;;;;;4.68;1.48;;;;;;;;;;4970858;28;20101;-62
2023/06/30 12:56:03;;;;;;;2.85;1.25;;;;;;;;;;4970849;28;20046;-62
2023/06/30 12:58:29;;;;;;;5.97;1.60;;;;;;;;;;4970731;28;20043;-62
2023/06/30 13:00:59;;;;;;;4.22;1.63;;;;;;;;;;4970821;28;20051;-62
2023/06/30 13:03:28;;;;;;;6.32;1.77;;;;;;;;;;4969182;28;20055;-63
2023/06/30 13:05:54;;;;;;;4.95;1.70;;;;;;;;;;4969877;28;20062;-63
2023/06/30 13:08:20;;;;;;;5.00;1.60;;;;;;;;;;4970271;28;20055;-63
2023/06/30 13:10:46;;;;;;;3.83;1.58;;;;;;;;;;4970848;28;20055;-62
2023/06/30 13:13:11;;;;;;;3.55;1.45;;;;;;;;;;4970676;28;20428;-62
2023/06/30 13:15:37;;;;;;;5.18;1.40;;;;;;;;;;4970756;28;20053;-62
2023/06/30 13:18:04;;;;;;;4.70;1.85;;;;;;;;;;4970603;28;20066;-62
2023/06/30 13:20:29;;;;;;;6.43;1.60;;;;;;;;;;4970240;28;20493;-62
2023/06/30 13:22:55;;;;;;;3.85;1.48;;;;;;;;;;4969789;28;20058;-63
2023/06/30 13:25:21;;;;;;;4.72;1.30;;;;;;;;;;4970568;28;20053;-62
2023/06/30 13:27:47;;;;;;;4.20;1.17;;;;;;;;;;4970149;28;20145;-63
2023/06/30 13:30:13;;;;;;;3.63;1.38;;;;;;;;;;4970396;28;20054;-62
2023/06/30 13:32:39;;;;;;;5.20;1.35;;;;;;;;;;4958801;28;20035;-62
2023/06/30 13:35:06;;;;;;;5.95;1.38;;;;;;;;;;4961001;28;20089;-63
2023/06/30 13:37:32;;;;;;;6.28;1.70;;;;;;;;;;4968336;28;20051;-62
2023/06/30 13:39:58;;;;;;;4.45;1.40;;;;;;;;;;4969364;28;20134;-63
2023/06/30 13:42:28;;;;;;;4.13;1.38;;;;;;;;;;4970202;28;20488;-63
2023/06/30 13:44:54;;;;;;;6.35;1.20;;;;;;;;;;4969785;28;20894;-62
2023/06/30 13:47:20;;;;;;;3.85;1.60;;;;;;;;;;4969525;28;20135;-63
2023/06/30 13:49:46;;;;;;;4.68;1.50;;;;;;;;;;4969942;28;20426;-63
2023/06/30 13:52:12;;;;;;;5.50;1.40;;;;;;;;;;4969970;28;20078;-62
2023/06/30 13:54:40;;;;;;;3.13;1.27;;;;;;;;;;4970151;28;20072;-62
2023/06/30 13:57:07;;;;;;;5.00;1.73;;;;;;;;;;4970098;28;20090;-63
2023/06/30 13:59:33;;;;;;;4.68;1.40;;;;;;;;;;4962921;28;20114;-63
2023/06/30 14:01:59;;;;;;;3.75;1.60;;;;;;;;;;4950837;29;20584;-62
2023/06/30 14:04:25;;;;;;;3.83;1.73;;;;;;;;;;4950952;29;20047;-63
2023/06/30 14:06:51;;;;;;;4.05;1.50;;;;;;;;;;4950192;29;20142;-62
2023/06/30 14:09:17;;;;;;;5.78;1.50;;;;;;;;;;4964566;28;20541;-62
2023/06/30 14:11:42;;;;;;;3.55;1.60;;;;;;;;;;4969785;28;20113;-62
2023/06/30 14:14:08;;;;;;;4.90;1.58;;;;;;;;;;4969463;28;20047;-62
2023/06/30 14:16:35;;;;;;;5.70;2.00;;;;;;;;;;4964809;28;20075;-63
2023/06/30 14:19:01;;;;;;;3.80;1.50;;;;;;;;;;4969469;28;20114;-62
2023/06/30 14:21:28;;;;;;;6.07;2.00;;;;;;;;;;4968072;28;20072;-63
2023/06/30 14:23:54;;;;;;;6.53;1.38;;;;;;;;;;4969257;28;20046;-62
2023/06/30 14:26:22;;;;;;;6.90;1.50;;;;;;;;;;4968616;28;20050;-62
2023/06/30 14:28:48;;;;;;;4.15;1.60;;;;;;;;;;4965812;28;20046;-62
2023/06/30 14:31:14;;;;;;;6.63;1.98;;;;;;;;;;4969138;28;20497;-62
2023/06/30 14:33:40;;;;;;;5.50;2.15;;;;;;;;;;4969033;28;20065;-62